Time;durP1;ratioP1;P1;durP2;ratioP2;P2;SDS_P1;SDS_P2;PMS_P1;PMS_P2;Temp;Humidity;BMP_temperature;BMP_pressure;BME280_temperature;BME280_humidity;BME280_pressure;Samples;Min_cycle;Max_cycle;Signal;HPM_P1;HPM_P2
2022/05/05 00:01:06;;;;;;;27.43;16.80;;;;;;;;;;5019508;28;20204;-79
2022/05/05 00:03:35;;;;;;;24.70;15.93;;;;;;;;;;5016831;28;20639;-79
2022/05/05 00:06:02;;;;;;;28.73;17.13;;;;;;;;;;5016578;28;20274;-78
2022/05/05 00:08:31;;;;;;;26.47;16.63;;;;;;;;;;5011201;28;20835;-78
2022/05/05 00:16:31;;;;;;;26.53;16.17;;;;;;;;;;5014232;28;20235;-78
2022/05/05 00:19:02;;;;;;;28.10;17.23;;;;;;;;;;5020255;28;20220;-78
2022/05/05 00:21:30;;;;;;;27.50;16.37;;;;;;;;;;5014375;28;20201;-78
2022/05/05 00:23:57;;;;;;;25.50;15.87;;;;;;;;;;5015371;28;20753;-78
2022/05/05 00:26:25;;;;;;;24.03;15.17;;;;;;;;;;5014683;28;20242;-78
2022/05/05 00:28:52;;;;;;;25.63;13.80;;;;;;;;;;5016566;28;20258;-79
2022/05/05 00:31:19;;;;;;;23.37;14.10;;;;;;;;;;5011226;28;20842;-78
2022/05/05 00:33:46;;;;;;;20.07;13.20;;;;;;;;;;5016232;28;20207;-78
2022/05/05 00:36:15;;;;;;;22.63;13.43;;;;;;;;;;5015036;28;20278;-77
2022/05/05 00:38:42;;;;;;;23.33;13.27;;;;;;;;;;5013859;28;20207;-80
2022/05/05 00:41:10;;;;;;;19.70;13.50;;;;;;;;;;5015145;28;20208;-78
2022/05/05 00:43:37;;;;;;;21.23;12.90;;;;;;;;;;5015053;28;20228;-78
2022/05/05 00:46:05;;;;;;;24.07;14.53;;;;;;;;;;5017601;28;20241;-79
2022/05/05 00:48:32;;;;;;;28.43;15.40;;;;;;;;;;5014886;28;20258;-80
2022/05/05 00:51:00;;;;;;;23.13;14.40;;;;;;;;;;5015112;28;20206;-80
2022/05/05 00:53:30;;;;;;;23.30;15.53;;;;;;;;;;5014883;28;20204;-78
2022/05/05 00:55:58;;;;;;;22.50;14.83;;;;;;;;;;5014478;28;20704;-78
2022/05/05 00:58:26;;;;;;;27.33;14.10;;;;;;;;;;5018968;28;20208;-78
2022/05/05 01:00:54;;;;;;;25.63;13.90;;;;;;;;;;5013885;28;20258;-78
2022/05/05 01:03:24;;;;;;;22.93;14.23;;;;;;;;;;5017174;28;20246;-78
2022/05/05 01:05:53;;;;;;;24.17;14.30;;;;;;;;;;5015815;28;20228;-78
2022/05/05 01:08:20;;;;;;;27.30;14.97;;;;;;;;;;5013572;28;20256;-78
2022/05/05 01:10:55;;;;;;;26.43;14.57;;;;;;;;;;5018946;28;20220;-78
2022/05/05 01:13:23;;;;;;;30.03;15.53;;;;;;;;;;5020558;28;20211;-78
2022/05/05 01:15:50;;;;;;;26.33;15.47;;;;;;;;;;5018234;28;20231;-79
2022/05/05 01:18:17;;;;;;;26.33;14.33;;;;;;;;;;5016794;28;20219;-78
2022/05/05 01:20:45;;;;;;;22.70;14.27;;;;;;;;;;5014046;28;20240;-78
2022/05/05 01:23:17;;;;;;;24.40;14.43;;;;;;;;;;5018746;28;20224;-78
2022/05/05 01:28:32;;;;;;;27.83;14.23;;;;;;;;;;5021115;28;20207;-78
2022/05/05 01:31:00;;;;;;;23.87;14.33;;;;;;;;;;5014491;28;20584;-78
2022/05/05 01:33:28;;;;;;;25.67;14.07;;;;;;;;;;5013231;28;20592;-78
2022/05/05 01:35:57;;;;;;;23.43;14.00;;;;;;;;;;5015224;28;20318;-77
2022/05/05 01:38:30;;;;;;;23.67;13.90;;;;;;;;;;5015081;28;20590;-78
2022/05/05 01:40:57;;;;;;;23.00;12.30;;;;;;;;;;5011820;28;20212;-78
2022/05/05 01:43:26;;;;;;;20.93;13.13;;;;;;;;;;5013336;28;20228;-77
2022/05/05 01:45:53;;;;;;;26.70;12.93;;;;;;;;;;5013649;28;20244;-78
2022/05/05 01:48:20;;;;;;;19.87;12.10;;;;;;;;;;5026261;28;20234;-77
2022/05/05 01:50:48;;;;;;;21.60;13.40;;;;;;;;;;5023955;28;20258;-77
2022/05/05 01:53:16;;;;;;;20.60;12.30;;;;;;;;;;5014162;28;20985;-78
2022/05/05 01:55:44;;;;;;;19.23;12.33;;;;;;;;;;5012659;28;20260;-78
2022/05/05 01:58:12;;;;;;;23.33;13.40;;;;;;;;;;5013446;28;20655;-78
2022/05/05 02:00:41;;;;;;;20.10;13.07;;;;;;;;;;5012592;28;20214;-78
2022/05/05 02:03:13;;;;;;;20.17;11.90;;;;;;;;;;5011424;28;20469;-78
2022/05/05 02:05:41;;;;;;;21.57;13.13;;;;;;;;;;5009390;28;20239;-78
2022/05/05 02:08:09;;;;;;;24.00;12.77;;;;;;;;;;5013639;28;20212;-79
2022/05/05 02:10:36;;;;;;;21.63;12.47;;;;;;;;;;5012504;28;20262;-80
2022/05/05 02:13:05;;;;;;;22.47;12.30;;;;;;;;;;5010759;28;20205;-79
2022/05/05 02:15:34;;;;;;;18.67;11.53;;;;;;;;;;5010852;28;20232;-79
2022/05/05 02:18:07;;;;;;;21.70;11.27;;;;;;;;;;5013812;28;20235;-79
2022/05/05 02:20:34;;;;;;;21.63;11.70;;;;;;;;;;5009231;28;20208;-77
2022/05/05 02:23:02;;;;;;;20.30;12.20;;;;;;;;;;5011833;28;20204;-78
2022/05/05 02:25:29;;;;;;;18.60;10.03;;;;;;;;;;5015768;28;20240;-77
2022/05/05 02:27:56;;;;;;;20.63;10.67;;;;;;;;;;5009436;28;20588;-77
2022/05/05 02:30:28;;;;;;;22.70;11.23;;;;;;;;;;5007699;28;20208;-78
2022/05/05 02:32:56;;;;;;;20.77;11.23;;;;;;;;;;5010748;28;20626;-78
2022/05/05 02:35:23;;;;;;;16.47;10.77;;;;;;;;;;5008029;28;20236;-78
2022/05/05 02:40:36;;;;;;;16.73;10.77;;;;;;;;;;5009863;28;20239;-78
2022/05/05 02:43:03;;;;;;;19.07;10.20;;;;;;;;;;5005342;28;20209;-78
2022/05/05 02:45:32;;;;;;;19.53;10.13;;;;;;;;;;5010493;28;20235;-78
2022/05/05 02:47:59;;;;;;;19.53;10.10;;;;;;;;;;5009659;28;20215;-78
2022/05/05 02:50:34;;;;;;;21.00;10.50;;;;;;;;;;5009227;28;20677;-78
2022/05/05 02:54:46;;;;;;;18.10;10.10;;;;;;;;;;5005819;28;20677;-78
2022/05/05 02:55:48;;;;;;;20.47;10.57;;;;;;;;;;5011030;28;20227;-78
2022/05/05 02:58:15;;;;;;;18.13;10.53;;;;;;;;;;5007144;28;20287;-78
2022/05/05 03:00:45;;;;;;;19.27;9.60;;;;;;;;;;5016088;28;20208;-79
2022/05/05 03:03:12;;;;;;;20.67;9.77;;;;;;;;;;5009718;28;20203;-78
2022/05/05 03:05:39;;;;;;;18.50;9.30;;;;;;;;;;5007761;28;20235;-78
2022/05/05 03:08:07;;;;;;;19.43;8.77;;;;;;;;;;5006220;28;20679;-78
2022/05/05 03:10:34;;;;;;;16.23;9.00;;;;;;;;;;5008821;28;20208;-79
2022/05/05 03:13:01;;;;;;;16.17;8.50;;;;;;;;;;5013664;28;20196;-78
2022/05/05 03:15:28;;;;;;;20.70;8.37;;;;;;;;;;5011402;28;20281;-79
2022/05/05 03:17:57;;;;;;;14.90;7.93;;;;;;;;;;5009554;28;20287;-78
2022/05/05 03:20:31;;;;;;;17.43;8.43;;;;;;;;;;5006642;28;20215;-78
2022/05/05 03:22:58;;;;;;;17.07;8.40;;;;;;;;;;5009538;28;20206;-79
2022/05/05 03:25:25;;;;;;;16.90;8.50;;;;;;;;;;5010186;28;20240;-79
2022/05/05 03:27:55;;;;;;;18.57;8.30;;;;;;;;;;5010465;28;20495;-78
2022/05/05 03:30:22;;;;;;;13.10;6.93;;;;;;;;;;5014246;28;20212;-78
2022/05/05 03:32:49;;;;;;;16.93;7.37;;;;;;;;;;5013897;28;20204;-79
2022/05/05 03:35:17;;;;;;;16.47;7.90;;;;;;;;;;5017001;28;20223;-78
2022/05/05 03:37:44;;;;;;;20.80;8.47;;;;;;;;;;5015717;28;20212;-79
2022/05/05 03:40:12;;;;;;;18.23;8.33;;;;;;;;;;5013059;28;20204;-78
2022/05/05 03:42:39;;;;;;;15.33;7.63;;;;;;;;;;5015452;28;20220;-79
2022/05/05 03:45:07;;;;;;;17.47;6.97;;;;;;;;;;5013243;28;20303;-77
2022/05/05 03:47:36;;;;;;;17.07;7.37;;;;;;;;;;5017346;28;20270;-79
2022/05/05 03:50:03;;;;;;;22.23;7.87;;;;;;;;;;5018818;28;20290;-78
2022/05/05 03:52:32;;;;;;;15.07;7.73;;;;;;;;;;5016098;28;20232;-78
2022/05/05 03:54:59;;;;;;;14.67;7.73;;;;;;;;;;5014900;28;20303;-78
2022/05/05 03:57:28;;;;;;;17.17;8.47;;;;;;;;;;5014430;28;20579;-78
2022/05/05 03:59:56;;;;;;;22.60;8.47;;;;;;;;;;5013747;28;20209;-78
2022/05/05 04:02:24;;;;;;;13.93;8.03;;;;;;;;;;5017232;28;20209;-78
2022/05/05 04:04:52;;;;;;;12.57;7.43;;;;;;;;;;5015855;28;20240;-79
2022/05/05 04:07:20;;;;;;;24.30;8.13;;;;;;;;;;5017993;28;20212;-78
2022/05/05 04:09:53;;;;;;;17.40;8.00;;;;;;;;;;5016351;28;20208;-78
2022/05/05 04:12:20;;;;;;;13.27;7.20;;;;;;;;;;5013839;28;20212;-78
2022/05/05 04:14:48;;;;;;;15.20;7.20;;;;;;;;;;5012479;28;20232;-78
2022/05/05 04:17:16;;;;;;;16.60;7.07;;;;;;;;;;5013619;28;20209;-78
2022/05/05 04:19:43;;;;;;;13.57;6.90;;;;;;;;;;5024165;28;20752;-79
2022/05/05 04:22:11;;;;;;;23.67;6.70;;;;;;;;;;5017960;28;20247;-79
2022/05/05 04:24:38;;;;;;;16.53;6.70;;;;;;;;;;5021690;28;20225;-78
2022/05/05 04:27:09;;;;;;;11.60;6.30;;;;;;;;;;5016747;28;20211;-80
2022/05/05 04:29:36;;;;;;;12.47;6.17;;;;;;;;;;5014017;28;20206;-79
2022/05/05 04:32:06;;;;;;;14.93;6.37;;;;;;;;;;5020102;28;20239;-79
2022/05/05 04:34:33;;;;;;;18.10;7.33;;;;;;;;;;5015158;28;20267;-80
2022/05/05 04:37:00;;;;;;;17.60;7.00;;;;;;;;;;5011891;28;20200;-78
2022/05/05 04:39:27;;;;;;;12.27;6.60;;;;;;;;;;5014898;28;21917;-80
2022/05/05 04:41:55;;;;;;;12.57;6.50;;;;;;;;;;5015782;28;20207;-79
2022/05/05 04:44:25;;;;;;;17.23;6.50;;;;;;;;;;5013280;28;20224;-79
2022/05/05 04:46:52;;;;;;;16.30;7.20;;;;;;;;;;5017796;28;20251;-80
2022/05/05 04:49:19;;;;;;;17.50;6.53;;;;;;;;;;5020135;28;20236;-79
2022/05/05 04:51:46;;;;;;;13.27;6.23;;;;;;;;;;5017071;28;20261;-79
2022/05/05 04:54:13;;;;;;;14.40;6.20;;;;;;;;;;5016369;28;20249;-79
2022/05/05 04:56:41;;;;;;;13.37;6.10;;;;;;;;;;5019693;28;20267;-78
2022/05/05 04:59:08;;;;;;;12.87;6.30;;;;;;;;;;5014247;28;20305;-80
2022/05/05 05:01:37;;;;;;;16.40;6.93;;;;;;;;;;5019618;28;20210;-79
2022/05/05 05:04:06;;;;;;;17.37;6.90;;;;;;;;;;5016954;28;20232;-78
2022/05/05 05:06:34;;;;;;;16.97;6.53;;;;;;;;;;5011622;28;20235;-78
2022/05/05 05:09:01;;;;;;;17.13;6.17;;;;;;;;;;5017174;28;20204;-78
2022/05/05 05:11:29;;;;;;;12.37;5.17;;;;;;;;;;5017837;28;20282;-79
2022/05/05 05:13:56;;;;;;;24.00;5.77;;;;;;;;;;5020898;28;20196;-78
2022/05/05 05:16:23;;;;;;;15.27;5.77;;;;;;;;;;5018065;28;20231;-79
2022/05/05 05:18:53;;;;;;;10.50;5.27;;;;;;;;;;5020828;28;20239;-79
2022/05/05 05:21:21;;;;;;;10.87;5.63;;;;;;;;;;5019481;28;20285;-79
2022/05/05 05:23:48;;;;;;;21.33;5.20;;;;;;;;;;5014855;28;20208;-79
2022/05/05 05:26:15;;;;;;;16.30;5.40;;;;;;;;;;5012565;28;20287;-79
2022/05/05 05:28:45;;;;;;;10.67;5.10;;;;;;;;;;5014222;28;20228;-80
2022/05/05 05:31:16;;;;;;;12.43;5.40;;;;;;;;;;5018941;28;20271;-78
2022/05/05 05:33:43;;;;;;;15.63;6.50;;;;;;;;;;5015384;28;20208;-81
2022/05/05 05:36:15;;;;;;;14.47;5.13;;;;;;;;;;5017099;28;20258;-80
2022/05/05 05:38:43;;;;;;;16.90;6.03;;;;;;;;;;5014855;28;20267;-80
2022/05/05 05:41:11;;;;;;;13.80;5.60;;;;;;;;;;5017985;28;20206;-80
2022/05/05 05:43:39;;;;;;;16.17;6.07;;;;;;;;;;5015076;28;20197;-79
2022/05/05 05:46:06;;;;;;;10.53;5.57;;;;;;;;;;5011571;28;20227;-79
2022/05/05 05:48:33;;;;;;;11.40;5.40;;;;;;;;;;5018791;28;20213;-80
2022/05/05 05:51:00;;;;;;;11.93;5.63;;;;;;;;;;5018586;28;20299;-80
2022/05/05 05:53:29;;;;;;;12.63;5.83;;;;;;;;;;5014074;28;20455;-79
2022/05/05 05:55:56;;;;;;;12.03;5.53;;;;;;;;;;5003532;28;20952;-80
2022/05/05 05:58:23;;;;;;;12.40;5.40;;;;;;;;;;5015442;28;20208;-79
2022/05/05 06:00:51;;;;;;;11.07;5.83;;;;;;;;;;5023977;28;20181;-77
2022/05/05 06:06:03;;;;;;;10.77;5.70;;;;;;;;;;5020850;28;20243;-79
2022/05/05 06:08:32;;;;;;;15.13;5.67;;;;;;;;;;5013227;28;20211;-80
2022/05/05 06:10:59;;;;;;;12.00;5.27;;;;;;;;;;5016637;28;20219;-80
2022/05/05 06:13:27;;;;;;;10.67;4.97;;;;;;;;;;5010056;28;20204;-80
2022/05/05 06:15:53;;;;;;;13.70;5.90;;;21.70;99.90;;;;;;5004971;28;20224;-79
2022/05/05 06:18:20;;;;;;;13.00;5.53;;;19.30;99.90;;;;;;5007623;28;20221;-81
2022/05/05 06:20:48;;;;;;;18.20;5.50;;;;;;;;;;5007743;28;20204;-79
2022/05/05 06:23:16;;;;;;;18.10;5.73;;;19.10;99.90;;;;;;5007667;28;20564;-81
2022/05/05 06:25:44;;;;;;;18.33;5.97;;;20.90;99.90;;;;;;5005965;28;20255;-81
2022/05/05 06:28:11;;;;;;;12.47;5.77;;;21.80;99.90;;;;;;5007609;28;20219;-81
2022/05/05 06:30:39;;;;;;;17.83;7.03;;;22.50;99.90;;;;;;5006117;28;20716;-81
2022/05/05 06:33:07;;;;;;;12.93;6.30;;;;;;;;;;5011051;28;20230;-80
2022/05/05 06:35:36;;;;;;;16.57;6.40;;;;;;;;;;5002228;28;20269;-80
2022/05/05 06:38:06;;;;;;;15.03;5.80;;;;;;;;;;5014745;28;20564;-80
2022/05/05 06:40:36;;;;;;;12.60;5.40;;;;;;;;;;5013566;28;20202;-80
2022/05/05 06:43:04;;;;;;;15.53;6.00;;;;;;;;;;5014832;28;20213;-80
2022/05/05 06:45:32;;;;;;;11.00;5.73;;;;;;;;;;5012564;28;20224;-80
2022/05/05 06:48:01;;;;;;;11.77;5.53;;;;;;;;;;5011288;28;20208;-80
2022/05/05 06:50:28;;;;;;;12.97;5.37;;;;;;;;;;5013956;28;20754;-80
2022/05/05 06:52:59;;;;;;;11.83;4.70;;;;;;;;;;5020429;28;21037;-80
2022/05/05 06:55:29;;;;;;;10.93;5.10;;;;;;;;;;5011448;28;20311;-80
2022/05/05 06:58:03;;;;;;;14.77;5.07;;;;;;;;;;5012756;28;20204;-80
2022/05/05 07:03:13;;;;;;;9.37;4.70;;;;;;;;;;5011085;28;20201;-80
2022/05/05 07:05:40;;;;;;;14.87;4.87;;;;;;;;;;5009855;28;20220;-80
2022/05/05 07:08:08;;;;;;;10.23;4.13;;;;;;;;;;5012292;28;20207;-80
2022/05/05 07:10:52;;;;;;;11.57;4.30;;;;;;;;;;5006827;28;20220;-79
2022/05/05 07:13:20;;;;;;;10.33;4.27;;;;;;;;;;5008116;28;20233;-80
2022/05/05 07:15:49;;;;;;;9.87;4.23;;;;;;;;;;5008186;28;20228;-79
2022/05/05 07:18:16;;;;;;;11.17;3.77;;;;;;;;;;5011311;28;20204;-80
2022/05/05 07:20:46;;;;;;;10.93;3.97;;;;;;;;;;5005995;28;20632;-80
2022/05/05 07:23:14;;;;;;;13.27;4.30;;;;;;;;;;5009097;28;20206;-80
2022/05/05 07:25:42;;;;;;;15.07;3.90;;;;;;;;;;5006873;28;20314;-80
2022/05/05 07:28:10;;;;;;;11.77;3.93;;;;;;;;;;5012029;28;20221;-79
2022/05/05 07:30:39;;;;;;;10.23;3.60;;;;;;;;;;5008903;28;20218;-79
2022/05/05 07:33:08;;;;;;;9.60;3.63;;;;;;;;;;5009269;28;20224;-79
2022/05/05 07:35:38;;;;;;;8.90;3.70;;;;;;;;;;5009282;28;20271;-79
2022/05/05 07:38:06;;;;;;;13.90;4.23;;;;;;;;;;5011913;28;20290;-78
2022/05/05 07:40:34;;;;;;;8.37;3.50;;;;;;;;;;5010878;28;20210;-79
2022/05/05 07:43:01;;;;;;;8.97;4.17;;;;;;;;;;5006231;28;20215;-80
2022/05/05 07:45:28;;;;;;;12.23;4.87;;;;;;;;;;5014365;28;20243;-80
2022/05/05 07:48:00;;;;;;;12.07;6.03;;;;;;;;;;5006665;28;20227;-80
2022/05/05 07:50:31;;;;;;;12.53;6.13;;;;;;;;;;5011845;28;20212;-79
2022/05/05 07:52:58;;;;;;;15.13;5.70;;;;;;;;;;5011439;28;22481;-80
2022/05/05 07:55:25;;;;;;;12.07;5.80;;;;;;;;;;5007550;28;20321;-80
2022/05/05 07:57:53;;;;;;;14.97;6.50;;;;;;;;;;5007903;28;20655;-80
2022/05/05 08:00:21;;;;;;;16.43;6.83;;;;;;;;;;5009044;28;20285;-80
2022/05/05 08:02:49;;;;;;;16.73;7.23;;;;;;;;;;5008847;28;20256;-80
2022/05/05 08:05:20;;;;;;;15.93;6.73;;;;;;;;;;5007266;28;20952;-80
2022/05/05 08:07:51;;;;;;;16.67;6.97;;;;;;;;;;5004785;28;20657;-80
2022/05/05 08:10:20;;;;;;;12.83;5.90;;;;;;;;;;5006562;28;20607;-80
2022/05/05 08:12:47;;;;;;;15.50;5.97;;;;;;;;;;5005058;28;20207;-80
2022/05/05 08:15:17;;;;;;;15.30;6.00;;;;;;;;;;5003796;28;20221;-80
2022/05/05 08:17:48;;;;;;;21.00;5.43;;;;;;;;;;5004754;28;20216;-86
2022/05/05 08:20:17;;;;;;;14.30;6.90;;;;;;;;;;5010959;28;20296;-81
2022/05/05 08:22:45;;;;;;;10.73;5.87;;;;;;;;;;5009310;28;20258;-80
2022/05/05 08:30:46;;;;;;;12.13;5.60;;;;;;;;;;5011017;28;20218;-80
2022/05/05 08:33:14;;;;;;;15.43;5.83;;;;;;;;;;5009062;28;20204;-81
2022/05/05 08:35:42;;;;;;;20.07;5.87;;;;;;;;;;5012014;28;20267;-81
2022/05/05 08:38:10;;;;;;;12.00;5.83;;;;;;;;;;5015534;28;20209;-81
2022/05/05 08:40:41;;;;;;;15.87;6.13;;;;;;;;;;5014072;28;20538;-81
2022/05/05 08:43:08;;;;;;;23.60;6.30;;;;;;;;;;5009899;28;20208;-82
2022/05/05 08:45:36;;;;;;;15.40;6.53;;;;;;;;;;5007175;28;20233;-81
2022/05/05 08:48:08;;;;;;;12.60;6.33;;;;;;;;;;5012358;28;20246;-80
2022/05/05 08:50:37;;;;;;;13.20;6.27;;;;;;;;;;5014058;28;20208;-80
2022/05/05 08:53:05;;;;;;;15.83;6.90;;;;;;;;;;5007067;28;20295;-80
2022/05/05 08:55:34;;;;;;;13.87;6.10;;;;;;;;;;5005973;28;20883;-80
2022/05/05 09:04:10;;;;;;;11.90;5.70;;;;;;;;;;4971307;28;20280;-80
2022/05/05 09:06:46;;;;;;;15.07;6.50;;;;;;;;;;5009321;28;20223;-80
2022/05/05 09:09:27;;;;;;;18.10;6.23;;;;;;;;;;5012687;28;20269;-80
2022/05/05 09:12:14;;;;;;;18.27;6.07;;;;;;;;;;5016755;28;20200;-81
2022/05/05 09:14:43;;;;;;;12.60;6.27;;;;;;;;;;5013623;28;20471;-81
2022/05/05 09:17:13;;;;;;;13.83;6.20;;;;;;;;;;5013242;28;20228;-80
2022/05/05 09:19:44;;;;;;;12.10;5.67;;;;;;;;;;5009402;28;20303;-80
2022/05/05 09:22:12;;;;;;;11.97;5.90;;;;;;;;;;5012030;28;20250;-80
2022/05/05 09:24:51;;;;;;;17.00;6.60;;;;;;;;;;5012800;28;20214;-80
2022/05/05 09:27:23;;;;;;;12.27;5.47;;;;;;;;;;5008636;28;20291;-81
2022/05/05 09:32:46;;;;;;;13.30;5.70;;;;;;;;;;4999507;28;20244;-80
2022/05/05 09:35:15;;;;;;;17.90;6.63;;;;;;;;;;5011654;28;20247;-80
2022/05/05 09:37:44;;;;;;;16.73;5.90;;;;;;;;;;5015907;28;20294;-80
2022/05/05 09:40:13;;;;;;;10.87;5.63;;;;;;;;;;5008472;28;20204;-80
2022/05/05 09:43:16;;;;;;;13.17;5.63;;;;;;;;;;5014152;28;20287;-80
2022/05/05 09:45:47;;;;;;;13.20;5.93;;;;;;;;;;4999475;28;20238;-80
2022/05/05 09:48:15;;;;;;;13.97;5.27;;;;;;;;;;5012335;28;20567;-80
2022/05/05 09:50:46;;;;;;;15.20;5.53;;;;;;;;;;5014073;28;20222;-80
2022/05/05 09:58:48;;;;;;;10.30;4.83;;;;;;;;;;5012248;28;20199;-81
2022/05/05 10:01:21;;;;;;;12.80;5.37;;;;;;;;;;5010688;28;20208;-80
2022/05/05 10:04:00;;;;;;;13.10;5.13;;;;;;;;;;5013136;28;20212;-80
2022/05/05 10:06:31;;;;;;;12.43;4.93;;;;;;;;;;5012151;28;20216;-81
2022/05/05 10:09:01;;;;;;;9.80;5.07;;;;;;;;;;5013169;28;20743;-81
2022/05/05 10:11:29;;;;;;;12.23;5.00;;;;;;;;;;5016151;28;20208;-79
2022/05/05 10:14:16;;;;;;;11.23;4.80;;;;;;;;;;5013633;28;20215;-80
2022/05/05 10:16:44;;;;;;;8.37;4.40;;;;;;;;;;5012413;28;20227;-80
2022/05/05 10:19:12;;;;;;;10.73;4.70;;;;;;;;;;5019167;28;20220;-79
2022/05/05 10:21:57;;;;;;;11.77;5.13;;;;;;;;;;5026187;28;20651;-79
2022/05/05 10:24:28;;;;;;;15.70;4.83;;;;;;;;;;5024644;28;20207;-79
2022/05/05 10:26:56;;;;;;;8.77;4.83;;;;;;;;;;5012793;28;20280;-79
2022/05/05 10:29:40;;;;;;;17.77;5.20;;;;;;;;;;5017246;28;20207;-80
2022/05/05 10:32:09;;;;;;;10.93;4.50;;;;;;;;;;5009990;28;20208;-80
2022/05/05 10:34:37;;;;;;;10.07;5.00;;;;;;;;;;5021377;28;20700;-80
2022/05/05 10:37:20;;;;;;;10.77;4.80;;;;;;;;;;5018144;28;20224;-80
2022/05/05 10:39:51;;;;;;;9.53;4.60;;;;;;;;;;5019811;28;20204;-81
2022/05/05 10:42:20;;;;;;;11.10;5.40;;;;;;;;;;5011913;28;20212;-80
2022/05/05 10:45:07;;;;;;;11.00;4.80;;;;;;;;;;5008610;28;20233;-80
2022/05/05 10:47:54;;;;;;;13.83;5.13;;;;;;;;;;5005181;28;20665;-80
2022/05/05 10:50:37;;;;;;;10.33;4.90;;;;;;;;;;5010073;28;20231;-80
2022/05/05 10:53:04;;;;;;;13.03;4.40;;;;;;;;;;5007848;28;20335;-80
2022/05/05 10:55:35;;;;;;;11.07;4.63;;;;;;;;;;5013010;28;20290;-80
2022/05/05 10:58:02;;;;;;;12.43;4.87;;;;;;;;;;5010410;28;20220;-79
2022/05/05 11:00:40;;;;;;;9.57;4.43;;;;;;;;;;5010269;28;20218;-79
2022/05/05 11:03:15;;;;;;;10.20;4.10;;;;;;;;;;5010535;28;20203;-78
2022/05/05 11:05:42;;;;;;;12.43;5.50;;;;;;;;;;5007842;28;20223;-80
2022/05/05 11:08:28;;;;;;;11.70;4.57;;;;;;;;;;5001410;28;20208;-79
2022/05/05 11:13:39;;;;;;;12.73;4.87;;;;;;;;;;5009491;28;20215;-80
2022/05/05 11:22:06;;;;;;;11.33;5.13;;;;;;;;;;5010855;28;20235;-79
2022/05/05 11:24:33;;;;;;;9.00;3.93;;;;;;;;;;5006489;28;20282;-79
2022/05/05 11:27:01;;;;;;;15.60;5.00;;;;;;;;;;5006875;28;20284;-80
2022/05/05 11:29:30;;;;;;;11.23;5.00;;;;;;;;;;5014804;28;20236;-80
2022/05/05 11:31:59;;;;;;;11.17;4.40;;;;;;;;;;5010422;28;20552;-81
2022/05/05 11:34:36;;;;;;;9.87;4.07;;;;;;;;;;5009422;28;20215;-81
2022/05/05 11:37:04;;;;;;;7.47;4.20;;;;;;;;;;5011989;28;20224;-80
2022/05/05 11:39:32;;;;;;;7.00;3.77;;;;;;;;;;5002663;28;20207;-82
2022/05/05 11:42:01;;;;;;;10.67;4.30;;;;;;;;;;5010989;28;20663;-81
2022/05/05 11:44:28;;;;;;;8.17;4.00;;;;;;;;;;5009306;28;20208;-79
2022/05/05 11:46:57;;;;;;;10.97;4.30;;;;;;;;;;5011438;28;20192;-80
2022/05/05 11:49:32;;;;;;;8.43;3.50;;;;;;;;;;5014492;28;20218;-80
2022/05/05 11:51:59;;;;;;;7.97;3.80;;;;;;;;;;5018393;28;20215;-80
2022/05/05 11:54:47;;;;;;;10.20;4.00;;;;;;;;;;5015684;28;20212;-80
2022/05/05 11:57:32;;;;;;;11.47;4.13;;;;;;;;;;5013193;28;20315;-80
2022/05/05 12:02:48;;;;;;;9.77;4.00;;;;;;;;;;5009070;28;20211;-80
2022/05/05 12:05:16;;;;;;;15.40;4.40;;;;;;;;;;5012464;28;20525;-79
2022/05/05 12:07:44;;;;;;;9.67;4.20;;;;;;;;;;5013012;28;20585;-79
2022/05/05 12:10:12;;;;;;;17.80;4.67;;;;;;;;;;5010647;28;20764;-80
2022/05/05 12:12:44;;;;;;;10.77;4.27;;;;;;;;;;5014397;28;20200;-80
2022/05/05 12:15:16;;;;;;;9.97;3.87;;;;;;;;;;5008960;28;20221;-79
2022/05/05 12:17:48;;;;;;;15.83;4.77;;;;;;;;;;5014990;28;20215;-79
2022/05/05 12:20:16;;;;;;;10.10;3.73;;;;;;;;;;5013981;28;20207;-79
2022/05/05 12:22:44;;;;;;;8.80;4.10;;;;;;;;;;5010969;28;20316;-79
2022/05/05 12:25:14;;;;;;;11.80;4.77;;;;;;;;;;5013431;28;20247;-80
2022/05/05 12:27:41;;;;;;;12.87;4.40;;;;;;;;;;5011951;28;20279;-79
2022/05/05 12:30:09;;;;;;;8.63;3.93;;;;;;;;;;5020510;28;20664;-78
2022/05/05 12:32:50;;;;;;;9.70;3.60;;;;;;;;;;5020928;28;20676;-79
2022/05/05 12:35:17;;;;;;;9.67;4.00;;;;;;;;;;5012659;28;20231;-79
2022/05/05 12:37:44;;;;;;;11.57;4.10;;;;;;;;;;5015515;28;20215;-80
2022/05/05 12:40:17;;;;;;;10.87;3.60;;;;;;;;;;5011213;28;20204;-79
2022/05/05 12:42:48;;;;;;;13.50;4.07;;;;;;;;;;5013051;28;21159;-80
2022/05/05 12:45:17;;;;;;;7.97;3.40;;;;;;;;;;5009535;28;20719;-79
2022/05/05 12:47:46;;;;;;;8.57;3.90;;;;;;;;;;5023303;28;20275;-81
2022/05/05 12:50:30;;;;;;;11.13;3.93;;;;;;;;;;5024697;28;20208;-80
2022/05/05 13:01:21;;;;;;;37.73;5.40;;;;;;;;;;5015826;28;20339;-80
2022/05/05 13:03:50;;;;;;;77.87;7.20;;;;;;;;;;5016115;28;20208;-80
2022/05/05 13:06:17;;;;;;;102.20;9.63;;;;;;;;;;5014191;28;20220;-82
2022/05/05 13:08:51;;;;;;;381.97;29.37;;;;;;;;;;5016808;28;20201;-80
2022/05/05 13:11:18;;;;;;;37.87;7.60;;;;;;;;;;5013083;28;20205;-81
2022/05/05 13:16:33;;;;;;;7.07;3.50;;;;;;;;;;5011256;28;20224;-83
2022/05/05 13:21:45;;;;;;;9.17;3.60;;;;;;;;;;5016019;28;20216;-83
2022/05/05 13:24:15;;;;;;;11.73;3.53;;;;;;;;;;5017689;28;20907;-83
2022/05/05 13:26:48;;;;;;;10.53;3.23;;;;;;;;;;5013818;28;20252;-83
2022/05/05 13:29:18;;;;;;;8.50;3.50;;;;;;;;;;5011665;28;20296;-83
2022/05/05 13:31:47;;;;;;;9.30;3.10;;;;;;;;;;5017202;28;20200;-83
2022/05/05 13:34:16;;;;;;;6.37;3.60;;;;;;;;;;5009661;28;20236;-83
2022/05/05 13:36:43;;;;;;;9.30;3.33;;;;;;;;;;5013093;28;20570;-83
2022/05/05 13:39:11;;;;;;;7.27;3.27;;;;;;;;;;5010076;28;20208;-83
2022/05/05 13:41:40;;;;;;;8.03;3.47;;;;;;;;;;5011295;28;20574;-83
2022/05/05 13:44:07;;;;;;;7.30;3.60;;;;;;;;;;5008244;28;20208;-83
2022/05/05 13:46:37;;;;;;;8.90;3.20;;;;;;;;;;5009055;28;20623;-83
2022/05/05 13:51:49;;;;;;;7.27;3.30;;;;;;;;;;5004700;28;20200;-83
2022/05/05 13:54:16;;;;;;;7.93;3.00;;;;;;;;;;5008167;28;20272;-83
2022/05/05 13:56:45;;;;;;;12.50;3.80;;;;;;;;;;5009552;28;20572;-83
2022/05/05 13:59:13;;;;;;;8.40;3.40;;;;;;;;;;5014697;28;20595;-81
2022/05/05 14:01:41;;;;;;;8.13;3.40;;;;;;;;;;5014818;28;20233;-82
2022/05/05 14:04:12;;;;;;;8.20;2.93;;;;;;;;;;5017948;28;20262;-82
2022/05/05 14:06:41;;;;;;;7.23;3.00;;;;;;;;;;5011734;28;20232;-82
2022/05/05 14:12:15;;;;;;;8.03;3.40;;;;;;;;;;5015996;28;20212;-83
2022/05/05 14:14:43;;;;;;;7.63;3.60;;;;;;;;;;5013835;28;20622;-83
2022/05/05 14:17:11;;;;;;;10.17;3.40;;;;;;;;;;5008113;28;20261;-83
2022/05/05 14:19:41;;;;;;;6.80;3.00;;;;;;;;;;5008754;28;20211;-83
2022/05/05 14:22:09;;;;;;;8.10;3.10;;;;;;;;;;5010765;28;20196;-83
2022/05/05 14:24:39;;;;;;;7.63;3.70;;;;;;;;;;5014623;28;20207;-84
2022/05/05 14:27:07;;;;;;;5.57;2.63;;;;;;;;;;5009395;28;20215;-83
2022/05/05 14:29:35;;;;;;;5.50;2.87;;;;;;;;;;5010031;28;20223;-83
2022/05/05 14:32:02;;;;;;;6.87;2.83;;;;;;;;;;5012592;28;20193;-83
2022/05/05 14:34:29;;;;;;;8.73;3.00;;;;;;;;;;5024367;28;20220;-83
2022/05/05 14:36:57;;;;;;;6.80;2.67;;;;;;;;;;5025906;28;20209;-83
2022/05/05 14:39:24;;;;;;;8.33;3.10;;;;;;;;;;5017503;28;20200;-82
2022/05/05 14:41:53;;;;;;;7.00;3.17;;;;;;;;;;5009876;28;20239;-82
2022/05/05 14:44:22;;;;;;;7.33;2.83;;;;;;;;;;5015039;28;20229;-81
2022/05/05 14:46:49;;;;;;;5.30;2.53;;;;;;;;;;5010630;28;20208;-82
2022/05/05 14:49:17;;;;;;;5.60;3.10;;;;;;;;;;5014371;28;20213;-83
2022/05/05 14:51:44;;;;;;;6.90;2.67;;;;;;;;;;5021182;28;20216;-84
2022/05/05 14:54:11;;;;;;;7.53;2.97;;;;;;;;;;5020841;28;20235;-82
2022/05/05 14:56:38;;;;;;;8.00;3.00;;;;;;;;;;5018924;28;20360;-82
2022/05/05 14:59:08;;;;;;;4.77;2.73;;;;;;;;;;5015215;28;20220;-85
2022/05/05 15:01:35;;;;;;;5.93;2.87;;;;;;;;;;5015275;28;21274;-82
2022/05/05 15:04:02;;;;;;;9.27;3.00;;;;;;;;;;5015402;28;20286;-83
2022/05/05 15:06:30;;;;;;;5.00;3.30;;;;;;;;;;5013009;28;20278;-84
2022/05/05 15:08:57;;;;;;;6.37;2.93;;;;;;;;;;5012776;28;20217;-83
2022/05/05 15:11:24;;;;;;;10.13;3.00;;;;;;;;;;4998064;28;20303;-84
2022/05/05 15:13:52;;;;;;;8.57;3.33;;;;;;;;;;4999816;28;20215;-84
2022/05/05 15:16:21;;;;;;;7.77;2.87;;;;;;;;;;5008837;28;20240;-84
2022/05/05 15:18:48;;;;;;;6.77;3.10;;;;;;;;;;5004902;28;20224;-83
2022/05/05 15:21:15;;;;;;;6.27;3.10;;;;;;;;;;5006377;28;20654;-83
2022/05/05 15:23:42;;;;;;;5.53;2.70;;;;;;;;;;5003952;28;20242;-83
2022/05/05 15:26:10;;;;;;;6.73;2.70;;;;;;;;;;5003435;28;20216;-82
2022/05/05 15:28:37;;;;;;;8.20;3.30;;;;;;;;;;5013889;28;20330;-83
2022/05/05 15:31:06;;;;;;;7.67;3.47;;;;;;;;;;5005058;28;20216;-81
2022/05/05 15:33:35;;;;;;;6.90;3.40;;;;;;;;;;5011795;28;20674;-82
2022/05/05 15:36:03;;;;;;;10.23;4.40;;;;;;;;;;5010738;28;20236;-82
2022/05/05 15:38:30;;;;;;;5.67;3.00;;;;;;;;;;5003380;28;20337;-82
2022/05/05 15:40:57;;;;;;;11.77;3.97;;;;;;;;;;5006114;28;20204;-83
2022/05/05 15:43:25;;;;;;;8.10;3.17;;;;;;;;;;5010380;28;20291;-83
2022/05/05 15:45:52;;;;;;;7.50;3.00;;;;;;;;;;5007746;28;20264;-82
2022/05/05 15:48:21;;;;;;;10.13;3.03;;;;;;;;;;5006432;28;20249;-83